Time;durP1;ratioP1;P1;durP2;ratioP2;P2;SDS_P1;SDS_P2;PMS_P1;PMS_P2;Temp;Humidity;BMP_temperature;BMP_pressure;BME280_temperature;BME280_humidity;BME280_pressure;Samples;Min_cycle;Max_cycle;Signal;HPM_P1;HPM_P2
2023/04/27 00:02:10;;;;;;;6.40;2.72;;;6.10;99.90;;;;;;6190509;23;20465;-92
2023/04/27 00:04:36;;;;;;;6.10;3.22;;;6.10;99.90;;;;;;6217279;23;20457;-92
2023/04/27 00:07:02;;;;;;;6.47;2.85;;;6.00;99.90;;;;;;6191280;23;20067;-92
2023/04/27 00:09:27;;;;;;;5.80;2.95;;;6.00;99.90;;;;;;6190389;23;20050;-91
2023/04/27 00:11:53;;;;;;;6.85;3.17;;;6.00;99.90;;;;;;6190872;23;20027;-91
2023/04/27 00:14:19;;;;;;;5.47;2.90;;;6.00;99.90;;;;;;6191408;23;20150;-91
2023/04/27 00:16:45;;;;;;;6.85;2.90;;;5.90;99.90;;;;;;6217118;23;20013;-91
2023/04/27 00:19:12;;;;;;;5.97;3.25;;;5.90;99.90;;;;;;6218490;23;20017;-91
2023/04/27 00:21:38;;;;;;;6.65;2.83;;;5.90;99.90;;;;;;6217469;23;20463;-91
2023/04/27 00:24:04;;;;;;;5.60;3.03;;;5.80;99.90;;;;;;6190616;23;20052;-91
2023/04/27 00:26:31;;;;;;;6.65;3.08;;;5.80;99.90;;;;;;6191382;23;20009;-91
2023/04/27 00:28:56;;;;;;;6.70;3.10;;;5.80;99.90;;;;;;6192244;23;20021;-92
2023/04/27 00:31:22;;;;;;;6.30;3.00;;;5.80;99.90;;;;;;6218101;23;20013;-91
2023/04/27 00:33:48;;;;;;;5.88;3.03;;;5.80;99.90;;;;;;6190032;23;20020;-90
2023/04/27 00:36:13;;;;;;;5.75;2.90;;;5.80;99.90;;;;;;6189190;23;20445;-91
2023/04/27 00:38:39;;;;;;;5.05;2.90;;;5.70;99.90;;;;;;6188726;23;20016;-91
2023/04/27 00:41:06;;;;;;;5.53;2.95;;;5.70;99.90;;;;;;6216367;23;20119;-90
2023/04/27 00:43:40;;;;;;;6.65;2.72;;;5.60;99.90;;;;;;6216618;23;20091;-91
2023/04/27 00:46:05;;;;;;;5.55;3.05;;;5.60;99.90;;;;;;6189830;23;20345;-90
2023/04/27 00:48:31;;;;;;;6.68;3.10;;;5.60;99.90;;;;;;6215686;23;20017;-91
2023/04/27 00:50:56;;;;;;;5.85;3.08;;;5.60;99.90;;;;;;6188956;23;20016;-90
2023/04/27 00:53:22;;;;;;;5.82;2.97;;;5.50;99.90;;;;;;6217164;23;20020;-91
2023/04/27 00:55:48;;;;;;;4.82;2.60;;;5.50;99.90;;;;;;6215662;23;20009;-90
2023/04/27 00:58:14;;;;;;;7.40;3.17;;;5.50;99.90;;;;;;6188711;23;20441;-91
2023/04/27 01:00:39;;;;;;;7.15;3.40;;;5.50;99.90;;;;;;6189043;23;20021;-90
2023/04/27 01:03:06;;;;;;;9.23;3.30;;;5.50;99.90;;;;;;6216106;23;20028;-89
2023/04/27 01:05:32;;;;;;;5.82;3.15;;;5.50;99.90;;;;;;6188375;23;20028;-91
2023/04/27 01:07:58;;;;;;;6.28;3.05;;;5.40;99.90;;;;;;6189068;23;20020;-91
2023/04/27 01:10:24;;;;;;;5.43;3.05;;;5.40;99.90;;;;;;6189401;23;20115;-90
2023/04/27 01:12:49;;;;;;;6.32;2.83;;;5.40;99.90;;;;;;6215034;23;20023;-90
2023/04/27 01:15:15;;;;;;;5.18;3.00;;;5.40;99.90;;;;;;6216180;23;20457;-91
2023/04/27 01:17:41;;;;;;;5.82;2.85;;;5.40;99.90;;;;;;6188740;23;20065;-90
2023/04/27 01:20:09;;;;;;;6.32;2.92;;;5.40;99.90;;;;;;6188076;23;20012;-90
2023/04/27 01:22:35;;;;;;;7.20;3.28;;;5.40;99.90;;;;;;6215188;23;20044;-90
2023/04/27 01:25:01;;;;;;;6.65;2.90;;;5.40;99.90;;;;;;6188706;23;20452;-91
2023/04/27 01:27:27;;;;;;;5.18;3.00;;;5.30;99.90;;;;;;6188129;23;20013;-91
2023/04/27 01:29:52;;;;;;;5.45;2.63;;;5.30;99.90;;;;;;6190023;23;20020;-90
2023/04/27 01:32:18;;;;;;;6.03;3.13;;;5.30;99.90;;;;;;6190681;23;20067;-91
2023/04/27 01:34:44;;;;;;;6.15;3.15;;;5.30;99.90;;;;;;6216620;23;20016;-90
2023/04/27 01:37:09;;;;;;;6.45;3.30;;;5.20;99.90;;;;;;6191573;23;20319;-90
2023/04/27 01:39:35;;;;;;;5.43;2.97;;;5.20;99.90;;;;;;6218057;23;20063;-91
2023/04/27 01:42:02;;;;;;;6.25;3.00;;;5.20;99.90;;;;;;6192792;23;20072;-90
2023/04/27 01:44:28;;;;;;;6.68;3.15;;;5.20;99.90;;;;;;6218178;23;20055;-92
2023/04/27 01:46:53;;;;;;;5.90;3.30;;;5.20;99.90;;;;;;6192269;23;20016;-93
2023/04/27 01:49:19;;;;;;;6.57;3.35;;;5.20;99.90;;;;;;6193190;23;20008;-91
2023/04/27 01:51:45;;;;;;;5.70;3.28;;;5.10;99.90;;;;;;6191600;23;20055;-92
2023/04/27 01:54:10;;;;;;;6.13;3.40;;;5.10;99.90;;;;;;6190827;23;20016;-92
2023/04/27 01:56:36;;;;;;;5.95;3.33;;;5.10;99.90;;;;;;6191569;23;20012;-91
2023/04/27 01:59:02;;;;;;;5.82;3.53;;;5.10;99.90;;;;;;6217672;23;20024;-92
2023/04/27 02:01:27;;;;;;;6.35;3.58;;;5.00;99.90;;;;;;6217399;23;20013;-92
2023/04/27 02:03:53;;;;;;;5.78;3.13;;;5.00;99.90;;;;;;6190820;23;20114;-92
2023/04/27 02:06:18;;;;;;;5.85;3.45;;;5.00;99.90;;;;;;6191054;23;20072;-92
2023/04/27 02:08:44;;;;;;;6.05;3.28;;;5.00;99.90;;;;;;6189627;23;20347;-92
2023/04/27 02:11:10;;;;;;;6.90;3.80;;;4.90;99.90;;;;;;6217572;23;20016;-93
2023/04/27 02:13:35;;;;;;;5.40;3.33;;;4.90;99.90;;;;;;6190584;23;20016;-91
2023/04/27 02:16:03;;;;;;;5.47;3.45;;;4.90;99.90;;;;;;6193028;23;20372;-92
2023/04/27 02:18:28;;;;;;;6.15;3.80;;;4.90;99.90;;;;;;6192700;23;20041;-92
2023/04/27 02:20:54;;;;;;;6.70;3.38;;;4.90;99.90;;;;;;6190592;23;20027;-93
2023/04/27 02:23:19;;;;;;;7.25;3.63;;;4.80;99.90;;;;;;6216948;23;20016;-92
2023/04/27 02:25:45;;;;;;;5.18;3.35;;;4.80;99.90;;;;;;6218521;23;20013;-92
2023/04/27 02:28:12;;;;;;;6.05;4.00;;;4.80;99.90;;;;;;6191089;23;20017;-92
2023/04/27 02:30:38;;;;;;;6.22;3.42;;;4.80;99.90;;;;;;6189653;23;20009;-92
2023/04/27 02:33:04;;;;;;;6.15;4.00;;;4.80;99.90;;;;;;6217682;23;20021;-91
2023/04/27 02:35:32;;;;;;;6.95;3.55;;;4.70;99.90;;;;;;6190353;23;20488;-92
2023/04/27 02:37:57;;;;;;;6.78;3.78;;;4.70;99.90;;;;;;6216912;23;20020;-91
2023/04/27 02:40:23;;;;;;;7.25;3.65;;;4.70;99.90;;;;;;6217217;23;20086;-91
2023/04/27 02:42:49;;;;;;;6.25;3.45;;;4.70;99.90;;;;;;6215938;23;20016;-91
2023/04/27 02:45:15;;;;;;;9.57;3.72;;;4.60;99.90;;;;;;6217700;23;20315;-91
2023/04/27 02:47:41;;;;;;;6.20;3.45;;;4.60;99.90;;;;;;6218014;23;20147;-92
2023/04/27 02:50:07;;;;;;;6.68;3.97;;;4.60;99.90;;;;;;6191363;23;20329;-92
2023/04/27 02:52:32;;;;;;;6.20;3.90;;;4.60;99.90;;;;;;6191058;23;20039;-91
2023/04/27 02:54:58;;;;;;;7.00;3.60;;;4.60;99.90;;;;;;6191126;23;20012;-92
2023/04/27 02:57:23;;;;;;;6.43;3.60;;;4.60;99.90;;;;;;6189932;23;20044;-91
2023/04/27 02:59:49;;;;;;;6.53;3.60;;;4.50;99.90;;;;;;6189902;23;20441;-92
2023/04/27 03:02:15;;;;;;;7.32;3.90;;;4.50;99.90;;;;;;6190569;23;20013;-91
2023/04/27 03:04:40;;;;;;;6.88;3.90;;;4.50;99.90;;;;;;6216656;23;20058;-91
2023/04/27 03:07:06;;;;;;;8.77;4.00;;;4.50;99.90;;;;;;6216596;23;20016;-92
2023/04/27 03:09:32;;;;;;;6.25;3.70;;;4.50;99.90;;;;;;6216930;23;20017;-91
2023/04/27 03:11:58;;;;;;;5.68;3.53;;;4.50;99.90;;;;;;6216873;23;20079;-92
2023/04/27 03:14:23;;;;;;;6.90;3.78;;;4.50;99.90;;;;;;6218669;23;20012;-92
2023/04/27 03:16:49;;;;;;;6.43;3.65;;;4.40;99.90;;;;;;6192035;23;20743;-92
2023/04/27 03:19:15;;;;;;;7.28;3.90;;;4.40;99.90;;;;;;6219006;23;20008;-91
2023/04/27 03:21:41;;;;;;;7.00;3.85;;;4.40;99.90;;;;;;6192393;23;20096;-91
2023/04/27 03:24:06;;;;;;;7.00;4.00;;;4.40;99.90;;;;;;6218813;23;20021;-92
2023/04/27 03:26:32;;;;;;;7.43;3.85;;;4.40;99.90;;;;;;6191385;23;20480;-91
2023/04/27 03:28:58;;;;;;;8.20;3.92;;;4.30;99.90;;;;;;6219551;23;20027;-92
2023/04/27 03:31:23;;;;;;;6.85;3.90;;;4.30;99.90;;;;;;6192122;23;20017;-92
2023/04/27 03:33:49;;;;;;;7.47;3.92;;;4.30;99.90;;;;;;6191261;23;20099;-91
2023/04/27 03:36:15;;;;;;;6.93;3.70;;;4.30;99.90;;;;;;6192015;23;20008;-92
2023/04/27 03:38:40;;;;;;;6.97;3.78;;;4.30;99.90;;;;;;6218227;23;20013;-92
2023/04/27 03:41:06;;;;;;;7.85;3.90;;;4.20;99.90;;;;;;6190837;23;20078;-92
2023/04/27 03:43:31;;;;;;;6.45;3.65;;;4.20;99.90;;;;;;6186592;23;20119;-91
2023/04/27 03:45:57;;;;;;;6.57;3.85;;;4.20;99.90;;;;;;6185697;23;20521;-90
2023/04/27 03:48:23;;;;;;;8.05;4.18;;;4.20;99.90;;;;;;6188177;23;20068;-92
2023/04/27 03:50:48;;;;;;;9.90;3.75;;;4.20;99.90;;;;;;6186216;23;20009;-91
2023/04/27 03:53:14;;;;;;;6.60;3.72;;;4.20;99.90;;;;;;6185740;23;20508;-91
2023/04/27 03:55:41;;;;;;;6.07;3.88;;;4.10;99.90;;;;;;6186113;23;20044;-91
2023/04/27 03:58:09;;;;;;;5.32;3.35;;;4.10;99.90;;;;;;6186571;23;20017;-91
2023/04/27 04:00:36;;;;;;;8.07;4.05;;;4.00;99.90;;;;;;6185659;23;20512;-92
2023/04/27 04:03:02;;;;;;;6.45;3.80;;;4.00;99.90;;;;;;6186633;23;20437;-91
2023/04/27 04:05:29;;;;;;;5.75;3.55;;;4.00;99.90;;;;;;6186755;23;20012;-92
2023/04/27 04:07:55;;;;;;;8.32;3.97;;;4.00;99.90;;;;;;6185740;23;20064;-91
2023/04/27 04:10:21;;;;;;;6.05;3.60;;;4.00;99.90;;;;;;6188753;23;20009;-91
2023/04/27 04:12:47;;;;;;;5.63;3.55;;;4.00;99.90;;;;;;6187778;23;20019;-91
2023/04/27 04:15:12;;;;;;;5.75;3.65;;;3.90;99.90;;;;;;6187587;23;20020;-91
2023/04/27 04:17:38;;;;;;;5.50;3.47;;;3.90;99.90;;;;;;6186411;23;20017;-92
2023/04/27 04:20:10;;;;;;;7.60;3.72;;;3.90;99.90;;;;;;6186587;23;20023;-92
2023/04/27 04:22:36;;;;;;;7.63;4.18;;;3.90;99.90;;;;;;6185260;23;20013;-91
2023/04/27 04:25:03;;;;;;;7.00;4.00;;;3.90;99.90;;;;;;6188280;23;20056;-91
2023/04/27 04:27:30;;;;;;;5.88;3.78;;;3.80;99.90;;;;;;6187891;23;20017;-91
2023/04/27 04:29:56;;;;;;;5.72;3.70;;;3.80;99.90;;;;;;6186105;23;20319;-91
2023/04/27 04:32:22;;;;;;;6.30;3.55;;;3.80;99.90;;;;;;6187977;23;20020;-91
2023/04/27 04:34:49;;;;;;;7.45;4.28;;;3.80;99.90;;;;;;6186156;23;20334;-91
2023/04/27 04:37:17;;;;;;;6.25;3.78;;;3.70;99.90;;;;;;6185593;23;20097;-91
2023/04/27 04:39:43;;;;;;;6.15;3.85;;;3.70;99.90;;;;;;6186200;23;20097;-91
2023/04/27 04:42:08;;;;;;;6.90;4.00;;;3.70;99.90;;;;;;6185710;23;20462;-91
2023/04/27 04:44:34;;;;;;;5.90;3.55;;;3.70;99.90;;;;;;6205504;23;20016;-91
2023/04/27 04:47:00;;;;;;;6.68;4.10;;;3.70;99.90;;;;;;6217897;23;20115;-91
2023/04/27 04:49:26;;;;;;;6.82;4.10;;;3.70;99.90;;;;;;6217508;23;20016;-91
2023/04/27 04:51:51;;;;;;;8.50;4.05;;;3.60;99.90;;;;;;6191011;23;20464;-91
2023/04/27 04:54:17;;;;;;;5.75;3.45;;;3.60;99.90;;;;;;6217856;23;20027;-91
2023/04/27 04:56:42;;;;;;;6.90;4.07;;;3.60;99.90;;;;;;6190541;23;20537;-91
2023/04/27 04:59:08;;;;;;;6.97;4.10;;;3.60;99.90;;;;;;6190852;23;20104;-89
2023/04/27 05:01:33;;;;;;;7.18;3.90;;;3.50;99.90;;;;;;6190684;23;20021;-91
2023/04/27 05:03:59;;;;;;;6.20;4.28;;;3.50;99.90;;;;;;6190381;23;20086;-91
2023/04/27 05:06:25;;;;;;;6.15;3.85;;;3.50;99.90;;;;;;6217300;23;20020;-91
2023/04/27 05:08:51;;;;;;;8.52;4.07;;;3.50;99.90;;;;;;6190397;23;20064;-92
2023/04/27 05:11:17;;;;;;;6.70;4.43;;;3.50;99.90;;;;;;6217532;23;20087;-91
2023/04/27 05:13:42;;;;;;;9.35;4.40;;;3.50;99.90;;;;;;6216908;23;20021;-91
2023/04/27 05:16:08;;;;;;;6.07;3.72;;;3.50;99.90;;;;;;6217100;23;20009;-91
2023/04/27 05:18:35;;;;;;;7.07;3.95;;;3.50;99.90;;;;;;6215723;23;20322;-91
2023/04/27 05:21:01;;;;;;;7.22;4.45;;;3.40;99.90;;;;;;6190633;23;20761;-91
2023/04/27 05:23:27;;;;;;;6.53;4.30;;;3.40;99.90;;;;;;6217122;23;20020;-91
2023/04/27 05:25:52;;;;;;;8.60;4.32;;;3.40;99.90;;;;;;6189622;23;20021;-91
2023/04/27 05:28:18;;;;;;;6.50;4.32;;;3.40;99.90;;;;;;6216903;23;20067;-92
2023/04/27 05:30:43;;;;;;;5.65;3.53;;;3.40;99.90;;;;;;6216238;23;20021;-91
2023/04/27 05:33:09;;;;;;;7.20;4.53;;;3.40;99.90;;;;;;6216303;23;20016;-91
2023/04/27 05:35:35;;;;;;;6.20;4.20;;;3.40;99.90;;;;;;6215931;23;20429;-91
2023/04/27 05:38:01;;;;;;;6.85;4.35;;;3.40;99.90;;;;;;6190112;23;20016;-91
2023/04/27 05:40:27;;;;;;;7.88;4.22;;;3.40;99.90;;;;;;6189867;23;20329;-91
2023/04/27 05:42:53;;;;;;;6.85;4.30;;;3.30;99.90;;;;;;6217289;23;20067;-91
2023/04/27 05:45:19;;;;;;;7.93;4.72;;;3.40;99.90;;;;;;6190389;23;20013;-91
2023/04/27 05:47:44;;;;;;;6.90;4.18;;;3.30;99.90;;;;;;6189834;23;20025;-91
2023/04/27 05:50:10;;;;;;;8.13;4.57;;;3.40;99.90;;;;;;6190446;23;20501;-91
2023/04/27 05:52:37;;;;;;;7.38;4.40;;;3.30;99.90;;;;;;6188881;23;20156;-89
2023/04/27 05:55:04;;;;;;;6.72;4.78;;;3.30;99.90;;;;;;6189451;23;20016;-91
2023/04/27 05:57:30;;;;;;;8.98;4.90;;;3.40;99.90;;;;;;6216137;23;20366;-90
2023/04/27 05:59:55;;;;;;;7.72;4.43;;;3.40;99.90;;;;;;6216088;23;20013;-90
2023/04/27 06:02:21;;;;;;;7.78;4.63;;;3.40;99.90;;;;;;6189951;23;20075;-91
2023/04/27 06:04:47;;;;;;;10.25;4.90;;;3.40;99.90;;;;;;6189613;23;20095;-90
2023/04/27 06:07:14;;;;;;;7.32;4.47;;;3.40;99.90;;;;;;6189088;23;20040;-90
2023/04/27 06:09:40;;;;;;;6.88;4.18;;;3.40;99.90;;;;;;6189506;23;20020;-91
2023/04/27 06:12:07;;;;;;;7.57;4.28;;;3.40;99.90;;;;;;6216710;23;20092;-91
2023/04/27 06:14:34;;;;;;;6.80;4.25;;;3.50;99.90;;;;;;6215630;23;20013;-91
2023/04/27 06:17:00;;;;;;;5.75;4.03;;;3.50;99.90;;;;;;6190133;23;20019;-91
2023/04/27 06:19:26;;;;;;;7.82;4.72;;;3.50;99.90;;;;;;6189899;23;20386;-91
2023/04/27 06:21:53;;;;;;;6.85;4.70;;;3.50;99.90;;;;;;6189162;23;20022;-91
2023/04/27 06:24:19;;;;;;;9.00;4.47;;;3.60;99.90;;;;;;6189540;23;20441;-90
2023/04/27 06:26:44;;;;;;;8.43;4.30;;;3.60;99.90;;;;;;6189779;23;20107;-91
2023/04/27 06:29:10;;;;;;;9.23;5.30;;;3.70;99.90;;;;;;6217226;23;20442;-91
2023/04/27 06:31:36;;;;;;;5.93;4.32;;;3.80;99.90;;;;;;6189536;23;20437;-91
2023/04/27 06:34:02;;;;;;;8.07;4.78;;;3.90;99.90;;;;;;6189781;23;20021;-90
2023/04/27 06:36:28;;;;;;;9.25;4.93;;;3.90;99.90;;;;;;6189198;23;20012;-90
2023/04/27 06:38:55;;;;;;;8.38;5.35;;;4.00;99.90;;;;;;6188918;23;20082;-89
2023/04/27 06:41:22;;;;;;;7.28;4.32;;;4.10;99.90;;;;;;6188676;23;20013;-90
2023/04/27 06:43:47;;;;;;;9.63;5.18;;;4.20;99.90;;;;;;6214880;23;20020;-90
2023/04/27 06:46:13;;;;;;;9.27;5.35;;;4.30;99.90;;;;;;6213471;23;20013;-91
2023/04/27 06:48:39;;;;;;;8.07;4.38;;;4.40;99.90;;;;;;6187940;23;20453;-91
2023/04/27 06:51:05;;;;;;;10.57;5.30;;;4.50;99.90;;;;;;6189050;23;20012;-92
2023/04/27 06:53:31;;;;;;;9.80;4.75;;;4.60;99.90;;;;;;6189264;23;20013;-90
2023/04/27 06:55:57;;;;;;;8.07;4.45;;;4.80;99.90;;;;;;6215306;23;20017;-90
2023/04/27 06:58:22;;;;;;;9.85;4.88;;;4.90;99.90;;;;;;6216111;23;20095;-90
2023/04/27 07:00:48;;;;;;;7.32;4.35;;;5.00;99.90;;;;;;6188185;23;20051;-90
2023/04/27 07:03:14;;;;;;;8.35;3.70;;;5.20;99.90;;;;;;6188413;23;20718;-90
2023/04/27 07:05:40;;;;;;;8.32;4.20;;;5.30;99.90;;;;;;6189258;23;20027;-90
2023/04/27 07:08:06;;;;;;;9.30;4.20;;;5.40;99.90;;;;;;6215811;23;20028;-90
2023/04/27 07:10:33;;;;;;;8.65;3.70;;;5.60;99.90;;;;;;6189070;23;20059;-90
2023/04/27 07:12:58;;;;;;;8.13;3.95;;;5.70;99.90;;;;;;6188941;23;20025;-91
2023/04/27 07:15:24;;;;;;;6.47;3.22;;;5.80;99.90;;;;;;6188798;23;20071;-90
2023/04/27 07:17:52;;;;;;;6.63;3.10;;;6.00;99.90;;;;;;6188277;23;20067;-90
2023/04/27 07:20:18;;;;;;;6.85;2.85;;;6.10;99.90;;;;;;6215552;23;20031;-90
2023/04/27 07:22:44;;;;;;;6.10;3.03;;;6.20;99.90;;;;;;6188988;23;20457;-89
2023/04/27 07:25:10;;;;;;;7.38;3.05;;;6.40;99.90;;;;;;6188866;23;20020;-90
2023/04/27 07:27:37;;;;;;;7.28;3.05;;;6.50;99.90;;;;;;6217633;23;20016;-91
2023/04/27 07:30:04;;;;;;;6.40;2.78;;;6.60;99.90;;;;;;6191119;23;20016;-87
2023/04/27 07:32:30;;;;;;;8.15;2.75;;;6.80;99.90;;;;;;6216016;23;20012;-89
2023/04/27 07:34:56;;;;;;;6.10;2.50;;;6.90;99.60;;;;;;6215896;23;20044;-89
2023/04/27 07:37:23;;;;;;;7.38;2.83;;;7.00;99.30;;;;;;6164637;23;20138;-88
2023/04/27 07:39:50;;;;;;;4.38;2.60;;;7.10;99.10;;;;;;6187876;23;20319;-88
2023/04/27 07:42:17;;;;;;;8.20;2.72;;;7.20;99.00;;;;;;6214737;23;20446;-88
2023/04/27 07:44:43;;;;;;;6.80;2.42;;;7.30;98.70;;;;;;6188749;23;20017;-88
2023/04/27 07:47:09;;;;;;;7.60;2.70;;;7.40;98.30;;;;;;6213987;23;20025;-87
2023/04/27 07:49:36;;;;;;;6.82;2.30;;;7.50;98.10;;;;;;6188800;23;20023;-88
2023/04/27 07:52:03;;;;;;;6.75;1.92;;;7.60;97.80;;;;;;6188945;23;20044;-86
2023/04/27 07:54:29;;;;;;;5.50;2.33;;;7.60;96.90;;;;;;6188391;23;20017;-86
2023/04/27 07:56:54;;;;;;;4.63;2.10;;;7.80;96.80;;;;;;6189440;23;20020;-86
2023/04/27 07:59:20;;;;;;;6.05;1.70;;;7.90;96.50;;;;;;6216673;23;20017;-90
2023/04/27 08:01:46;;;;;;;5.75;1.88;;;8.00;95.80;;;;;;6217289;23;20445;-88
2023/04/27 08:04:11;;;;;;;9.02;2.10;;;8.00;95.20;;;;;;6218602;23;20100;-91
2023/04/27 08:06:37;;;;;;;7.72;2.35;;;8.10;95.30;;;;;;6190650;23;20063;-88
2023/04/27 08:09:03;;;;;;;6.10;1.73;;;8.20;95.20;;;;;;6190461;23;20027;-90
2023/04/27 08:11:29;;;;;;;6.47;1.48;;;8.30;95.00;;;;;;6191548;23;20025;-90
2023/04/27 08:13:55;;;;;;;3.85;1.50;;;8.40;94.50;;;;;;6191114;23;20008;-90
2023/04/27 08:16:20;;;;;;;5.25;1.73;;;8.50;94.10;;;;;;6191929;23;20476;-88
2023/04/27 08:18:48;;;;;;;7.25;1.98;;;8.60;94.10;;;;;;6191625;23;20016;-90
2023/04/27 08:21:14;;;;;;;6.13;1.70;;;8.70;94.20;;;;;;6191753;23;20031;-90
2023/04/27 08:23:39;;;;;;;3.88;1.63;;;8.80;94.10;;;;;;6191380;23;20013;-89
2023/04/27 08:26:15;;;;;;;6.65;1.90;;;8.90;94.30;;;;;;6191523;23;20017;-88
2023/04/27 08:28:41;;;;;;;4.93;1.52;;;8.90;94.10;;;;;;6217301;23;20019;-90
2023/04/27 08:31:09;;;;;;;5.30;1.60;;;9.00;93.70;;;;;;6190913;23;20013;-89
2023/04/27 08:34:05;;;;;;;4.10;1.60;;;9.10;93.10;;;;;;6218279;23;20017;-90
2023/04/27 08:36:40;;;;;;;3.97;1.92;;;9.20;93.30;;;;;;6189984;23;20055;-90
2023/04/27 08:39:06;;;;;;;5.20;1.77;;;9.30;94.10;;;;;;6218186;23;20023;-89
2023/04/27 08:41:32;;;;;;;6.03;1.70;;;9.40;93.80;;;;;;6217154;23;20016;-90
2023/04/27 08:43:58;;;;;;;5.25;1.70;;;9.50;93.40;;;;;;6190884;23;20468;-89
2023/04/27 08:46:26;;;;;;;6.28;1.92;;;9.60;93.40;;;;;;6191299;23;20025;-90
2023/04/27 08:48:53;;;;;;;8.27;2.05;;;9.70;92.70;;;;;;6190206;23;20021;-90
2023/04/27 08:51:20;;;;;;;5.45;1.73;;;9.70;92.60;;;;;;6217636;23;20082;-90
2023/04/27 08:53:51;;;;;;;4.07;1.70;;;9.80;92.00;;;;;;6190934;23;20020;-91
2023/04/27 08:56:17;;;;;;;4.80;1.70;;;9.90;92.00;;;;;;6190292;23;20056;-89
2023/04/27 08:58:43;;;;;;;5.68;1.92;;;9.90;92.80;;;;;;6189621;23;20023;-91
2023/04/27 09:01:09;;;;;;;6.70;2.10;;;10.00;92.60;;;;;;6190436;23;20012;-90
2023/04/27 09:03:36;;;;;;;4.20;1.85;;;10.10;91.50;;;;;;6188520;23;20445;-86
2023/04/27 09:06:05;;;;;;;7.35;1.98;;;10.20;90.60;;;;;;6188147;23;20012;-87
2023/04/27 09:08:48;;;;;;;4.55;1.77;;;10.20;90.20;;;;;;6189007;23;20025;-89
2023/04/27 09:11:15;;;;;;;5.68;1.90;;;10.30;90.40;;;;;;6216169;23;20028;-88
2023/04/27 09:13:44;;;;;;;6.63;2.00;;;10.30;91.00;;;;;;6190274;23;20008;-88
2023/04/27 09:16:13;;;;;;;4.05;1.90;;;10.40;90.00;;;;;;6189994;23;20039;-90
2023/04/27 09:18:41;;;;;;;7.00;2.30;;;10.50;91.00;;;;;;6189934;23;20017;-91
2023/04/27 09:21:07;;;;;;;6.07;1.80;;;10.60;90.50;;;;;;6189840;23;20541;-89
2023/04/27 09:23:38;;;;;;;7.20;2.22;;;10.70;90.00;;;;;;6188947;23;20017;-87
2023/04/27 09:26:07;;;;;;;6.88;2.55;;;10.70;89.70;;;;;;6190093;23;20074;-87
2023/04/27 09:28:37;;;;;;;5.65;2.08;;;10.80;90.60;;;;;;6189347;23;20012;-88
2023/04/27 09:31:03;;;;;;;7.72;2.10;;;10.90;90.00;;;;;;6201196;23;20012;-88
2023/04/27 09:33:31;;;;;;;4.63;2.30;;;10.90;90.40;;;;;;6229123;23;20068;-86
2023/04/27 09:35:58;;;;;;;8.98;2.50;;;11.00;90.60;;;;;;6215884;23;20088;-86
2023/04/27 09:38:24;;;;;;;8.23;2.13;;;11.10;90.00;;;;;;6188186;23;20021;-87
2023/04/27 09:40:52;;;;;;;6.47;2.20;;;11.20;88.00;;;;;;6188664;23;20099;-85
2023/04/27 09:43:18;;;;;;;5.57;2.40;;;11.20;89.50;;;;;;6195064;23;20471;-88
2023/04/27 09:45:43;;;;;;;7.95;2.17;;;11.40;90.90;;;;;;6188023;23;20020;-90
2023/04/27 09:48:11;;;;;;;8.60;3.17;;;11.40;89.00;;;;;;6188890;23;20017;-90
2023/04/27 09:50:39;;;;;;;7.35;2.95;;;11.40;86.40;;;;;;6189275;23;20348;-90
2023/04/27 09:53:10;;;;;;;7.38;2.60;;;11.50;86.10;;;;;;6215738;23;20143;-89
2023/04/27 09:55:43;;;;;;;10.18;2.80;;;11.60;84.30;;;;;;6189545;23;20016;-89
2023/04/27 09:58:48;;;;;;;6.23;2.73;;;11.70;84.80;;;;;;6216727;23;20115;-89
2023/04/27 10:01:39;;;;;;;7.13;2.80;;;11.70;84.40;;;;;;6134391;23;20461;-89
2023/04/27 10:04:11;;;;;;;7.57;2.90;;;11.80;84.30;;;;;;6189711;23;20013;-89
2023/04/27 10:06:56;;;;;;;7.78;3.00;;;11.90;85.10;;;;;;6188598;23;20540;-89
2023/04/27 10:09:22;;;;;;;7.30;3.40;;;11.90;87.30;;;;;;6189665;23;20106;-89
2023/04/27 10:11:50;;;;;;;9.88;3.15;;;12.00;85.90;;;;;;6189179;23;20016;-89
2023/04/27 10:14:23;;;;;;;7.63;3.08;;;12.00;84.10;;;;;;6215400;23;20016;-90
2023/04/27 10:16:48;;;;;;;;;;;12.10;85.70;;;;;;6216791;23;20013;-89
2023/04/27 10:19:14;;;;;;;7.32;3.08;;;12.10;91.10;;;;;;6216537;23;19966;-89
2023/04/27 10:22:02;;;;;;;7.20;3.20;;;12.10;90.70;;;;;;6188326;23;20329;-90
2023/04/27 10:24:38;;;;;;;7.82;2.95;;;12.20;90.20;;;;;;6190031;23;20013;-89
2023/04/27 10:27:07;;;;;;;6.95;3.40;;;12.30;91.10;;;;;;6188464;23;20066;-90
2023/04/27 10:29:38;;;;;;;7.53;3.28;;;12.40;91.60;;;;;;6189468;23;20016;-90
2023/04/27 10:32:09;;;;;;;6.85;2.97;;;12.50;90.10;;;;;;6189369;23;20472;-89
2023/04/27 10:34:36;;;;;;;8.52;2.80;;;12.60;90.70;;;;;;6188248;23;20019;-89
2023/04/27 10:37:07;;;;;;;6.78;3.00;;;12.60;90.20;;;;;;6189513;23;20489;-89
2023/04/27 10:39:36;;;;;;;7.53;3.20;;;12.70;90.40;;;;;;6216042;23;20079;-90
2023/04/27 10:42:02;;;;;;;7.30;3.38;;;12.80;90.80;;;;;;6215170;23;20333;-91
2023/04/27 10:44:29;;;;;;;6.25;2.92;;;12.90;91.80;;;;;;6189445;23;20400;-90
2023/04/27 10:46:58;;;;;;;7.18;3.00;;;13.00;91.10;;;;;;6215970;23;20071;-90
2023/04/27 10:49:27;;;;;;;6.03;2.97;;;13.10;91.60;;;;;;6188423;23;20020;-90
2023/04/27 10:51:52;;;;;;;5.60;3.05;;;13.10;92.70;;;;;;6215872;23;20433;-91
2023/04/27 10:54:18;;;;;;;8.90;3.05;;;13.30;93.50;;;;;;6190077;23;20070;-91
2023/04/27 10:56:44;;;;;;;7.45;2.80;;;13.30;90.40;;;;;;6188338;23;20044;-89
2023/04/27 10:59:10;;;;;;;6.53;2.83;;;13.30;90.80;;;;;;6216183;23;20438;-92
2023/04/27 11:01:36;;;;;;;5.97;2.80;;;13.40;89.90;;;;;;6215799;23;20318;-90
2023/04/27 11:04:05;;;;;;;8.80;3.40;;;13.40;91.10;;;;;;6189144;23;20012;-91
2023/04/27 11:06:32;;;;;;;7.35;3.08;;;13.50;91.00;;;;;;6217432;23;20092;-91
2023/04/27 11:08:58;;;;;;;5.97;3.22;;;13.50;90.60;;;;;;6190162;23;20051;-91
2023/04/27 11:11:25;;;;;;;5.68;2.90;;;13.60;92.20;;;;;;6189288;23;20031;-91
2023/04/27 11:13:51;;;;;;;7.38;3.10;;;13.70;93.30;;;;;;6216268;23;20025;-91
2023/04/27 11:16:18;;;;;;;7.15;3.47;;;13.70;92.60;;;;;;6215576;23;20016;-91
2023/04/27 11:18:44;;;;;;;8.05;3.05;;;13.80;93.50;;;;;;6189262;23;20021;-91
2023/04/27 11:21:19;;;;;;;7.13;3.47;;;13.90;91.60;;;;;;6190179;23;20024;-90
2023/04/27 11:23:45;;;;;;;7.85;3.35;;;13.90;92.90;;;;;;6188377;23;20074;-90
2023/04/27 11:26:11;;;;;;;5.80;3.47;;;14.00;90.40;;;;;;6189736;23;20017;-91
2023/04/27 11:28:37;;;;;;;8.15;3.35;;;14.00;91.20;;;;;;6189900;23;20016;-91
2023/04/27 11:31:03;;;;;;;6.70;3.50;;;14.00;89.30;;;;;;6189062;23;20016;-90
2023/04/27 11:33:30;;;;;;;7.95;3.50;;;14.00;87.60;;;;;;6191213;23;20018;-91
2023/04/27 11:35:56;;;;;;;6.10;3.20;;;14.00;82.70;;;;;;6218226;23;20013;-91
2023/04/27 11:38:22;;;;;;;9.80;3.47;;;14.10;85.20;;;;;;6190417;23;20020;-91
2023/04/27 11:41:06;;;;;;;9.35;3.33;;;14.20;86.00;;;;;;6218195;23;20083;-90
2023/04/27 11:43:52;;;;;;;6.03;3.58;;;14.20;90.70;;;;;;6191390;23;20016;-94
2023/04/27 11:46:21;;;;;;;5.97;3.50;;;14.30;92.60;;;;;;6189495;23;20024;-89
2023/04/27 11:48:46;;;;;;;6.88;3.17;;;14.40;93.80;;;;;;6190171;23;20028;-87
2023/04/27 11:51:12;;;;;;;7.53;3.17;;;14.40;93.90;;;;;;6191233;23;20353;-91
2023/04/27 11:53:38;;;;;;;10.68;3.42;;;14.50;93.00;;;;;;6218878;23;20023;-92
2023/04/27 11:56:11;;;;;;;5.97;3.10;;;14.50;90.30;;;;;;6191217;23;20025;-91
2023/04/27 11:58:38;;;;;;;10.05;3.90;;;14.50;90.00;;;;;;6217450;23;20071;-90
2023/04/27 12:01:04;;;;;;;10.80;4.00;;;14.50;91.70;;;;;;6191156;23;20458;-93
2023/04/27 12:03:30;;;;;;;8.05;3.63;;;14.60;92.70;;;;;;6191061;23;20017;-92
2023/04/27 12:05:56;;;;;;;9.55;3.92;;;14.70;93.10;;;;;;6191017;23;20074;-92
2023/04/27 12:08:23;;;;;;;10.57;3.35;;;14.80;93.70;;;;;;6217877;23;20012;-92
2023/04/27 12:10:49;;;;;;;8.40;4.05;;;14.80;92.50;;;;;;6190737;23;20008;-91
2023/04/27 12:13:14;;;;;;;9.02;3.95;;;14.80;93.80;;;;;;6189917;23;20319;-91
2023/04/27 12:15:41;;;;;;;8.23;3.97;;;14.90;94.10;;;;;;6190408;23;20022;-92
2023/04/27 12:18:07;;;;;;;6.95;3.78;;;14.90;94.30;;;;;;6190592;23;20021;-91
2023/04/27 12:20:33;;;;;;;12.30;4.20;;;15.00;93.50;;;;;;6216398;23;20380;-90
2023/04/27 12:22:59;;;;;;;8.48;3.60;;;15.00;94.10;;;;;;6217685;23;20023;-90
2023/04/27 12:25:25;;;;;;;6.75;3.60;;;15.10;95.10;;;;;;6216786;23;20329;-90
2023/04/27 12:27:52;;;;;;;6.50;3.13;;;15.20;94.90;;;;;;6216950;23;20067;-90
2023/04/27 12:30:18;;;;;;;7.53;3.33;;;15.10;89.20;;;;;;6216907;23;20015;-90
2023/04/27 12:32:44;;;;;;;12.88;4.65;;;15.10;84.60;;;;;;6217125;23;20016;-90
2023/04/27 12:35:10;;;;;;;10.15;3.83;;;15.00;82.30;;;;;;6216890;23;20088;-90
2023/04/27 12:37:36;;;;;;;13.68;5.75;;;14.90;80.30;;;;;;6216925;23;20054;-90
2023/04/27 12:40:05;;;;;;;13.30;6.43;;;14.80;89.20;;;;;;6189728;23;20020;-90
2023/04/27 12:42:31;;;;;;;9.02;3.95;;;14.90;91.90;;;;;;6189273;23;20122;-90
2023/04/27 12:44:57;;;;;;;8.23;3.30;;;14.90;86.40;;;;;;6189733;23;20429;-91
2023/04/27 12:47:23;;;;;;;13.05;5.40;;;14.80;75.10;;;;;;6190240;23;20031;-91
2023/04/27 12:49:49;;;;;;;8.90;3.90;;;14.70;87.10;;;;;;6190413;23;20406;-92
2023/04/27 12:52:23;;;;;;;5.80;3.28;;;14.70;82.60;;;;;;6191196;23;20023;-93